createdAt,value
2023-04-30T00:01:59.199Z,12.46
2023-04-30T00:04:26.057Z,12.30
2023-04-30T00:06:52.822Z,12.32
2023-04-30T00:09:19.765Z,12.49
2023-04-30T00:11:46.716Z,12.55
2023-04-30T00:14:13.388Z,12.65
2023-04-30T00:16:40.162Z,12.59
2023-04-30T00:19:06.865Z,12.58
2023-04-30T00:21:33.833Z,12.61
2023-04-30T00:24:04.071Z,12.49
2023-04-30T00:26:31.033Z,12.44
2023-04-30T00:28:57.743Z,12.36
2023-04-30T00:31:24.547Z,12.30
2023-04-30T00:33:52.039Z,12.27
2023-04-30T00:36:18.685Z,12.16
2023-04-30T00:38:45.402Z,12.06
2023-04-30T00:41:12.383Z,12.12
2023-04-30T00:43:39.030Z,12.13
2023-04-30T00:46:06.920Z,12.09
2023-04-30T00:48:33.711Z,12.05
2023-04-30T00:51:03.050Z,12.12
2023-04-30T00:53:29.873Z,12.15
2023-04-30T00:55:57.877Z,12.16
2023-04-30T00:58:24.573Z,12.05
2023-04-30T01:00:52.223Z,12.07
2023-04-30T01:03:19.151Z,12.11
2023-04-30T01:05:46.057Z,12.18
2023-04-30T01:08:12.811Z,12.05
2023-04-30T01:10:52.459Z,12.11
2023-04-30T01:13:30.505Z,12.12
2023-04-30T01:16:08.579Z,12.10
2023-04-30T01:18:42.252Z,12.09
2023-04-30T01:21:09.527Z,11.95
2023-04-30T01:23:55.638Z,12.00
2023-04-30T01:26:53.228Z,12.00
2023-04-30T01:31:52.047Z,11.89
2023-04-30T01:34:18.828Z,11.89
2023-04-30T01:40:20.189Z,11.99
2023-04-30T01:43:20.160Z,11.97
2023-04-30T01:46:04.256Z,11.92
2023-04-30T01:49:02.469Z,11.98
2023-04-30T01:51:56.286Z,11.80
2023-04-30T01:54:29.513Z,11.77
2023-04-30T01:57:06.266Z,11.80
2023-04-30T01:59:39.323Z,11.81
2023-04-30T02:02:06.941Z,11.72
2023-04-30T02:04:33.663Z,11.72
2023-04-30T02:07:00.474Z,11.77
2023-04-30T02:09:27.127Z,11.82
2023-04-30T02:11:53.808Z,11.86
2023-04-30T02:14:20.563Z,11.89
2023-04-30T02:19:18.459Z,11.91
2023-04-30T02:21:45.132Z,11.87
2023-04-30T02:24:11.810Z,11.83
2023-04-30T02:26:38.506Z,11.77
2023-04-30T02:29:05.136Z,11.76
2023-04-30T02:31:32.169Z,11.90
2023-04-30T02:33:58.863Z,11.84
2023-04-30T02:36:25.647Z,11.81
2023-04-30T02:38:52.303Z,11.77
2023-04-30T02:43:50.182Z,11.89
2023-04-30T02:46:16.927Z,11.73
2023-04-30T02:48:43.661Z,11.76
2023-04-30T02:53:41.579Z,11.67
2023-04-30T02:56:08.516Z,11.70
2023-04-30T02:58:35.173Z,11.65
2023-04-30T03:01:01.865Z,11.62
2023-04-30T03:03:28.720Z,11.64
2023-04-30T03:05:57.040Z,11.66
2023-04-30T03:08:23.768Z,11.72
2023-04-30T03:10:50.479Z,11.61
2023-04-30T03:13:17.216Z,11.63
2023-04-30T03:15:44.010Z,11.67
2023-04-30T03:18:11.438Z,11.78
2023-04-30T03:20:38.219Z,11.76
2023-04-30T03:23:04.880Z,11.66
2023-04-30T03:25:31.610Z,11.77
2023-04-30T03:27:58.771Z,11.86
2023-04-30T03:30:25.445Z,11.88
2023-04-30T03:32:52.125Z,11.70
2023-04-30T03:35:19.414Z,11.55
2023-04-30T03:37:46.129Z,11.44
2023-04-30T03:40:13.395Z,11.62
2023-04-30T03:42:40.304Z,11.56
2023-04-30T03:45:07.594Z,11.31
2023-04-30T03:47:35.444Z,11.44
2023-04-30T03:50:03.175Z,11.64
2023-04-30T03:52:31.481Z,11.64
2023-04-30T03:54:58.246Z,11.66
2023-04-30T03:57:24.969Z,11.76
2023-04-30T03:59:51.923Z,11.72
2023-04-30T04:04:51.499Z,11.45
2023-04-30T04:09:49.490Z,11.33
2023-04-30T04:12:16.262Z,11.18
2023-04-30T04:17:14.439Z,11.42
2023-04-30T04:19:41.161Z,11.29
2023-04-30T04:22:07.828Z,11.31
2023-04-30T04:24:34.618Z,11.29
2023-04-30T04:29:34.868Z,11.59
2023-04-30T04:32:03.002Z,11.38
2023-04-30T04:34:29.733Z,11.32
2023-04-30T04:39:36.896Z,11.42
2023-04-30T04:44:41.636Z,11.36
2023-04-30T04:47:08.808Z,11.33
2023-04-30T04:49:35.472Z,11.31
2023-04-30T04:52:02.291Z,11.44
2023-04-30T04:54:29.002Z,11.28
2023-04-30T04:56:55.923Z,11.34
2023-04-30T04:59:22.572Z,11.49
2023-04-30T05:01:49.355Z,11.44
2023-04-30T05:04:16.204Z,11.51
2023-04-30T05:06:43.098Z,11.54
2023-04-30T05:09:10.342Z,11.70
2023-04-30T05:11:37.019Z,11.69
2023-04-30T05:14:03.698Z,11.75
2023-04-30T05:16:30.465Z,11.64
2023-04-30T05:18:57.249Z,11.74
2023-04-30T05:21:24.021Z,11.59
2023-04-30T05:23:50.795Z,11.66
2023-04-30T05:26:17.555Z,11.66
2023-04-30T05:28:44.358Z,11.63
2023-04-30T05:31:11.050Z,11.86
2023-04-30T05:33:37.723Z,11.83
2023-04-30T05:36:04.677Z,11.94
2023-04-30T05:38:31.407Z,11.96
2023-04-30T05:40:58.191Z,12.01
2023-04-30T05:45:58.542Z,12.03
2023-04-30T05:48:25.271Z,11.96
2023-04-30T05:50:51.939Z,11.83
2023-04-30T05:53:18.776Z,11.91
2023-04-30T05:55:45.484Z,11.88
2023-04-30T05:58:12.115Z,11.82
2023-04-30T06:00:39.599Z,11.90
2023-04-30T06:03:06.582Z,12.12
2023-04-30T06:05:33.352Z,12.23
2023-04-30T06:08:00.070Z,11.99
2023-04-30T06:10:26.990Z,12.40
2023-04-30T06:12:53.745Z,12.47
2023-04-30T06:15:20.458Z,12.65
2023-04-30T06:17:47.182Z,12.62
2023-04-30T06:20:15.047Z,12.76
2023-04-30T06:22:41.759Z,12.52
2023-04-30T06:25:09.111Z,12.54
2023-04-30T06:27:35.863Z,12.70
2023-04-30T06:30:02.629Z,12.94
2023-04-30T06:32:29.384Z,12.88
2023-04-30T06:34:56.092Z,12.93
2023-04-30T06:37:22.793Z,13.10
2023-04-30T06:39:49.837Z,13.10
2023-04-30T06:44:48.314Z,13.46
2023-04-30T06:47:15.310Z,13.80
2023-04-30T06:49:41.984Z,13.61
2023-04-30T06:52:08.770Z,13.75
2023-04-30T06:54:35.528Z,13.86
2023-04-30T06:57:02.183Z,14.13
2023-04-30T06:59:29.789Z,14.46
2023-04-30T07:01:56.473Z,14.24
2023-04-30T07:04:24.818Z,13.97
2023-04-30T07:06:51.689Z,13.80
2023-04-30T07:09:18.373Z,14.05
2023-04-30T07:11:45.538Z,14.14
2023-04-30T07:14:12.266Z,14.12
2023-04-30T07:16:38.891Z,14.30
2023-04-30T07:19:05.595Z,14.65
2023-04-30T07:21:32.983Z,14.85
2023-04-30T07:23:59.694Z,14.91
2023-04-30T07:26:26.758Z,14.61
2023-04-30T07:28:53.529Z,14.51
2023-04-30T07:31:20.532Z,14.74
2023-04-30T07:33:47.592Z,14.96
2023-04-30T07:36:14.324Z,15.32
2023-04-30T07:38:41.080Z,15.08
2023-04-30T07:41:08.418Z,15.32
2023-04-30T07:43:36.164Z,15.39
2023-04-30T07:46:04.275Z,15.66
2023-04-30T07:48:31.249Z,15.73
2023-04-30T07:50:57.951Z,16.00
2023-04-30T07:53:24.638Z,16.29
2023-04-30T07:55:51.302Z,16.32
2023-04-30T07:58:17.981Z,16.32
2023-04-30T08:05:47.594Z,16.54
2023-04-30T08:08:14.494Z,16.63
2023-04-30T08:10:42.151Z,16.69
2023-04-30T08:13:08.815Z,16.94
2023-04-30T08:15:36.089Z,16.91
2023-04-30T08:18:03.181Z,16.69
2023-04-30T08:20:30.008Z,16.66
2023-04-30T08:22:56.736Z,16.43
2023-04-30T08:25:23.416Z,16.13
2023-04-30T08:27:50.353Z,16.54
2023-04-30T08:30:17.260Z,16.88
2023-04-30T08:32:44.085Z,16.56
2023-04-30T08:35:11.001Z,16.47
2023-04-30T08:37:37.697Z,15.74
2023-04-30T08:40:05.068Z,15.77
2023-04-30T08:42:36.721Z,15.60
2023-04-30T08:45:04.730Z,15.55
2023-04-30T08:47:32.173Z,15.44
2023-04-30T08:49:58.909Z,15.41
2023-04-30T08:52:28.736Z,15.28
2023-04-30T09:00:02.367Z,15.56
2023-04-30T09:02:29.091Z,15.60
2023-04-30T09:04:55.922Z,15.74
2023-04-30T09:07:23.934Z,15.85
2023-04-30T09:09:53.520Z,15.71
2023-04-30T09:12:20.688Z,16.25
2023-04-30T09:15:02.535Z,16.39
2023-04-30T09:17:29.925Z,16.22
2023-04-30T09:20:10.220Z,15.89
2023-04-30T09:22:38.272Z,15.72
2023-04-30T09:25:06.464Z,15.90
2023-04-30T09:27:33.230Z,15.66
2023-04-30T09:29:59.956Z,15.82
2023-04-30T09:32:26.904Z,16.22
2023-04-30T09:34:53.641Z,16.36
2023-04-30T09:37:20.334Z,16.88
2023-04-30T09:39:55.347Z,16.41
2023-04-30T09:42:22.637Z,16.14
2023-04-30T09:44:49.452Z,16.20
2023-04-30T09:47:18.374Z,16.27
2023-04-30T09:49:52.359Z,16.19
2023-04-30T09:52:20.460Z,16.30
2023-04-30T09:54:48.135Z,16.38
2023-04-30T09:57:16.538Z,16.23
2023-04-30T09:59:46.416Z,16.08
2023-04-30T10:02:17.466Z,16.16
2023-04-30T10:04:45.633Z,16.37
2023-04-30T10:07:14.815Z,16.86
2023-04-30T10:12:28.136Z,16.50
2023-04-30T10:15:14.978Z,16.07
2023-04-30T10:17:44.889Z,16.00
2023-04-30T10:20:13.192Z,16.06
2023-04-30T10:22:42.037Z,16.39
2023-04-30T10:25:11.643Z,16.07
2023-04-30T10:27:39.433Z,16.12
2023-04-30T10:30:09.938Z,15.92
2023-04-30T10:32:49.047Z,15.94
2023-04-30T10:35:26.465Z,16.04
2023-04-30T10:37:59.885Z,15.85
2023-04-30T10:40:27.559Z,16.08
2023-04-30T10:42:55.324Z,16.24
2023-04-30T10:48:10.546Z,16.18
2023-04-30T10:50:46.073Z,16.28
2023-04-30T10:53:16.348Z,16.29
2023-04-30T10:55:58.324Z,16.45
2023-04-30T10:58:30.907Z,16.14
2023-04-30T11:01:06.377Z,16.29
2023-04-30T11:03:35.792Z,16.29
2023-04-30T11:06:15.260Z,16.57
2023-04-30T11:08:46.437Z,16.61
2023-04-30T11:11:18.673Z,16.67
2023-04-30T11:13:46.540Z,16.60
2023-04-30T11:16:13.576Z,16.26
2023-04-30T11:18:47.169Z,16.40
2023-04-30T11:21:14.332Z,16.40
2023-04-30T11:23:45.214Z,16.60
2023-04-30T11:26:12.092Z,16.42
2023-04-30T11:28:38.874Z,16.20
2023-04-30T11:31:06.181Z,16.55
2023-04-30T11:33:34.117Z,16.55
2023-04-30T11:36:01.917Z,16.81
2023-04-30T11:38:36.123Z,16.89
2023-04-30T11:41:04.343Z,16.83
2023-04-30T11:43:33.042Z,16.74
2023-04-30T11:46:07.466Z,16.76
2023-04-30T11:48:35.656Z,16.80
2023-04-30T11:51:14.372Z,16.57
2023-04-30T11:53:41.675Z,16.62
2023-04-30T11:56:08.762Z,16.66
2023-04-30T11:58:38.301Z,16.54
2023-04-30T12:01:08.274Z,16.44
2023-04-30T12:03:41.806Z,16.60
2023-04-30T12:06:10.889Z,16.73
2023-04-30T12:08:38.326Z,17.03
2023-04-30T12:11:08.087Z,17.02
2023-04-30T12:13:34.923Z,17.06
2023-04-30T12:16:01.977Z,16.99
2023-04-30T12:18:28.676Z,17.05
2023-04-30T12:20:55.636Z,16.86
2023-04-30T12:23:22.813Z,16.87
2023-04-30T12:25:49.609Z,16.61
2023-04-30T12:28:16.654Z,16.85
2023-04-30T12:30:43.907Z,16.80
2023-04-30T12:33:11.205Z,16.73
2023-04-30T12:38:17.854Z,16.80
2023-04-30T12:40:49.197Z,16.99
2023-04-30T12:43:17.586Z,17.07
2023-04-30T12:45:46.968Z,16.92
2023-04-30T12:48:15.076Z,17.14
2023-04-30T12:50:42.139Z,16.74
2023-04-30T12:53:09.177Z,16.72
2023-04-30T12:55:37.818Z,16.93
2023-04-30T12:58:08.812Z,16.75
2023-04-30T13:00:48.429Z,16.51
2023-04-30T13:03:17.050Z,16.70
2023-04-30T13:05:50.758Z,16.84
2023-04-30T13:08:18.955Z,16.74
2023-04-30T13:10:47.021Z,16.73
2023-04-30T13:13:15.248Z,16.74
2023-04-30T13:15:43.786Z,16.84
2023-04-30T13:20:43.901Z,16.99
2023-04-30T13:23:12.174Z,16.84
2023-04-30T13:25:40.257Z,17.00
2023-04-30T13:28:07.447Z,16.99
2023-04-30T13:30:34.894Z,17.00
2023-04-30T13:33:01.925Z,17.05
2023-04-30T13:35:28.989Z,17.19
2023-04-30T13:37:56.192Z,17.31
2023-04-30T13:40:22.874Z,17.38
2023-04-30T13:42:49.624Z,17.31
2023-04-30T13:45:16.591Z,17.27
2023-04-30T13:47:43.446Z,17.52
2023-04-30T13:50:10.647Z,17.53
2023-04-30T13:52:37.406Z,17.78
2023-04-30T13:55:05.082Z,17.76
2023-04-30T13:57:33.663Z,17.82
2023-04-30T14:00:00.508Z,18.31
2023-04-30T14:02:28.560Z,18.45
2023-04-30T14:05:05.122Z,18.37
2023-04-30T14:07:33.195Z,18.49
2023-04-30T14:10:00.232Z,18.12
2023-04-30T14:12:26.920Z,18.01
2023-04-30T14:14:53.675Z,17.78
2023-04-30T14:17:20.786Z,17.44
2023-04-30T14:19:47.577Z,17.64
2023-04-30T14:22:14.603Z,17.77
2023-04-30T14:24:41.398Z,17.82
2023-04-30T14:27:08.152Z,17.96
2023-04-30T14:29:34.857Z,17.71
2023-04-30T14:32:02.273Z,17.85
2023-04-30T14:34:29.036Z,17.75
2023-04-30T14:36:56.019Z,17.57
2023-04-30T14:39:22.720Z,17.74
2023-04-30T14:41:50.277Z,17.62
2023-04-30T14:46:49.449Z,17.03
2023-04-30T14:49:16.116Z,17.06
2023-04-30T14:51:42.968Z,17.10
2023-04-30T14:54:09.883Z,17.40
2023-04-30T14:56:36.631Z,17.27
2023-04-30T14:59:03.398Z,17.51
2023-04-30T15:01:30.737Z,17.58
2023-04-30T15:03:57.504Z,17.72
2023-04-30T15:06:24.321Z,17.74
2023-04-30T15:08:51.093Z,17.35
2023-04-30T15:11:18.352Z,17.61
2023-04-30T15:13:45.009Z,17.73
2023-04-30T15:16:11.894Z,17.69
2023-04-30T15:18:39.168Z,17.42
2023-04-30T15:21:06.020Z,17.65
2023-04-30T15:23:33.941Z,17.83
2023-04-30T15:28:36.210Z,17.61
2023-04-30T15:31:06.487Z,17.78
2023-04-30T15:33:34.770Z,17.75
2023-04-30T15:36:01.534Z,17.46
2023-04-30T15:38:28.209Z,17.55
2023-04-30T15:40:54.891Z,17.59
2023-04-30T15:43:21.727Z,17.60
2023-04-30T15:45:48.674Z,17.64
2023-04-30T15:50:46.928Z,17.60
2023-04-30T15:53:13.569Z,17.49
2023-04-30T15:55:40.654Z,17.45
2023-04-30T15:58:07.385Z,17.60
2023-04-30T16:00:34.245Z,17.55
2023-04-30T16:03:01.163Z,17.35
2023-04-30T16:05:27.977Z,17.41
2023-04-30T16:07:54.813Z,17.44
2023-04-30T16:10:21.850Z,17.27
2023-04-30T16:12:48.742Z,17.36
2023-04-30T16:17:53.024Z,17.00
2023-04-30T16:20:20.646Z,16.94
2023-04-30T16:22:47.901Z,17.06
2023-04-30T16:25:14.603Z,16.92
2023-04-30T16:27:43.530Z,16.85
2023-04-30T16:30:10.467Z,16.87
2023-04-30T16:32:37.406Z,16.81
2023-04-30T16:35:04.448Z,16.78
2023-04-30T16:37:31.319Z,16.77
2023-04-30T16:39:58.299Z,16.81
2023-04-30T16:42:25.114Z,16.78
2023-04-30T16:44:51.746Z,16.68
2023-04-30T16:47:19.492Z,16.70
2023-04-30T16:49:46.153Z,16.74
2023-04-30T16:52:12.858Z,16.58
2023-04-30T16:54:39.565Z,16.65
2023-04-30T16:57:06.254Z,16.53
2023-04-30T16:59:32.961Z,16.80
2023-04-30T17:02:00.954Z,16.83
2023-04-30T17:04:27.852Z,16.57
2023-04-30T17:06:54.547Z,16.56
2023-04-30T17:11:52.580Z,16.53
2023-04-30T17:14:19.307Z,16.47
2023-04-30T17:16:47.181Z,16.44
2023-04-30T17:19:14.345Z,16.55
2023-04-30T17:21:41.011Z,16.39
2023-04-30T17:24:08.225Z,16.39
2023-04-30T17:26:34.899Z,16.39
2023-04-30T17:29:01.663Z,16.25
2023-04-30T17:31:30.706Z,16.27
2023-04-30T17:33:57.486Z,16.27
2023-04-30T17:36:25.099Z,16.20
2023-04-30T17:41:29.082Z,16.38
2023-04-30T17:43:55.749Z,16.46
2023-04-30T17:46:22.664Z,16.43
2023-04-30T17:48:49.531Z,16.26
2023-04-30T17:51:16.408Z,16.26
2023-04-30T17:53:43.056Z,16.08
2023-04-30T17:56:10.005Z,16.19
2023-04-30T17:58:39.134Z,16.24
2023-04-30T18:01:06.816Z,16.17
2023-04-30T18:03:36.690Z,16.07
2023-04-30T18:06:04.128Z,15.93
2023-04-30T18:08:31.281Z,15.90
2023-04-30T18:10:58.352Z,15.81
2023-04-30T18:13:25.084Z,15.78
2023-04-30T18:15:51.830Z,15.82
2023-04-30T18:18:18.774Z,15.70
2023-04-30T18:20:46.095Z,15.77
2023-04-30T18:23:14.019Z,15.60
2023-04-30T18:25:42.636Z,15.58
2023-04-30T18:28:09.873Z,15.58
2023-04-30T18:30:37.088Z,15.45
2023-04-30T18:33:07.511Z,15.46
2023-04-30T18:35:34.854Z,15.19
2023-04-30T18:38:02.094Z,15.23
2023-04-30T18:40:28.978Z,15.06
2023-04-30T18:42:56.996Z,15.13
2023-04-30T18:45:24.176Z,14.99
2023-04-30T18:47:50.968Z,14.84
2023-04-30T18:50:18.233Z,14.85
2023-04-30T18:52:45.405Z,14.84
2023-04-30T18:55:14.316Z,14.64
2023-04-30T18:57:42.520Z,14.60
2023-04-30T19:00:10.716Z,14.42
2023-04-30T19:02:37.652Z,14.18
2023-04-30T19:05:04.941Z,14.20
2023-04-30T19:07:31.652Z,14.28
2023-04-30T19:09:58.844Z,14.03
2023-04-30T19:12:25.663Z,14.27
2023-04-30T19:14:52.294Z,14.11
2023-04-30T19:17:21.495Z,14.03
2023-04-30T19:19:50.309Z,13.93
2023-04-30T19:22:17.500Z,13.98
2023-04-30T19:24:44.200Z,13.96
2023-04-30T19:27:11.431Z,13.72
2023-04-30T19:29:39.654Z,13.61
2023-04-30T19:32:06.946Z,13.54
2023-04-30T19:34:33.753Z,13.35
2023-04-30T19:37:00.815Z,13.38
2023-04-30T19:39:32.026Z,13.50
2023-04-30T19:41:59.239Z,13.56
2023-04-30T19:44:26.106Z,13.51
2023-04-30T19:46:52.937Z,13.39
2023-04-30T19:51:50.908Z,13.55
2023-04-30T19:54:18.193Z,13.43
2023-04-30T19:56:45.175Z,13.60
2023-04-30T19:59:11.976Z,13.43
2023-04-30T20:01:38.905Z,13.11
2023-04-30T20:04:06.646Z,13.11
2023-04-30T20:06:33.748Z,13.13
2023-04-30T20:09:01.464Z,13.04
2023-04-30T20:11:28.505Z,13.14
2023-04-30T20:13:55.800Z,13.01
2023-04-30T20:16:22.692Z,12.82
2023-04-30T20:18:49.538Z,12.65
2023-04-30T20:21:18.108Z,12.66
2023-04-30T20:23:48.835Z,12.85
2023-04-30T20:26:15.555Z,12.90
2023-04-30T20:28:43.991Z,12.97
2023-04-30T20:31:11.176Z,12.67
2023-04-30T20:33:37.871Z,12.63
2023-04-30T20:36:04.794Z,12.52
2023-04-30T20:38:31.464Z,12.32
2023-04-30T20:40:58.990Z,12.31
2023-04-30T20:43:25.672Z,12.37
2023-04-30T20:45:52.537Z,12.38
2023-04-30T20:48:19.305Z,12.22
2023-04-30T20:50:46.307Z,12.27
2023-04-30T20:53:14.405Z,12.40
2023-04-30T20:58:12.891Z,12.29
2023-04-30T21:00:39.675Z,12.26
2023-04-30T21:03:06.614Z,12.14
2023-04-30T21:05:33.542Z,12.09
2023-04-30T21:08:01.961Z,12.03
2023-04-30T21:10:36.210Z,12.07
2023-04-30T21:13:05.530Z,12.13
2023-04-30T21:15:34.627Z,12.17
2023-04-30T21:18:01.473Z,11.99
2023-04-30T21:20:28.331Z,12.09
2023-04-30T21:22:56.462Z,11.91
2023-04-30T21:25:23.210Z,11.92
2023-04-30T21:27:49.959Z,11.85
2023-04-30T21:30:17.415Z,11.59
2023-04-30T21:32:49.823Z,11.43
2023-04-30T21:35:16.799Z,11.61
2023-04-30T21:37:43.931Z,11.62
2023-04-30T21:40:11.187Z,11.69
2023-04-30T21:42:37.929Z,11.68
2023-04-30T21:45:05.141Z,11.47
2023-04-30T21:47:32.008Z,11.35
2023-04-30T21:49:59.217Z,11.46
2023-04-30T21:52:26.241Z,11.45
2023-04-30T21:54:53.005Z,11.46
2023-04-30T21:57:19.721Z,11.42
2023-04-30T21:59:46.431Z,11.28
2023-04-30T22:02:23.246Z,11.05
2023-04-30T22:04:50.781Z,10.90
2023-04-30T22:07:17.662Z,11.01
2023-04-30T22:09:45.066Z,10.86
2023-04-30T22:12:11.906Z,10.88
2023-04-30T22:14:38.651Z,10.94
2023-04-30T22:17:05.402Z,10.99
2023-04-30T22:19:32.080Z,11.03
2023-04-30T22:21:58.986Z,11.12
2023-04-30T22:24:25.608Z,11.14
2023-04-30T22:26:52.266Z,11.29
2023-04-30T22:29:19.868Z,11.29
2023-04-30T22:31:46.645Z,11.14
2023-04-30T22:34:15.586Z,11.10
2023-04-30T22:36:42.514Z,10.94
2023-04-30T22:39:10.298Z,10.99
2023-04-30T22:41:37.084Z,10.92
2023-04-30T22:44:04.704Z,10.99
2023-04-30T22:46:33.750Z,11.05
2023-04-30T22:49:01.268Z,11.00
2023-04-30T22:51:28.039Z,11.00
2023-04-30T22:53:56.596Z,11.11
2023-04-30T22:56:23.461Z,10.98
2023-04-30T22:58:50.169Z,10.94
2023-04-30T23:01:17.125Z,11.10
2023-04-30T23:03:43.873Z,10.93
2023-04-30T23:06:11.266Z,10.98
2023-04-30T23:08:38.126Z,11.01
2023-04-30T23:11:05.494Z,11.04
2023-04-30T23:13:32.665Z,10.99
2023-04-30T23:16:00.291Z,10.86
2023-04-30T23:18:27.614Z,11.07
2023-04-30T23:20:59.920Z,10.90
2023-04-30T23:23:27.556Z,10.91
2023-04-30T23:25:55.657Z,10.90
2023-04-30T23:28:24.564Z,10.90
2023-04-30T23:30:52.463Z,10.68
2023-04-30T23:33:19.814Z,10.62
2023-04-30T23:48:26.246Z,10.55
2023-04-30T23:51:03.284Z,10.47
2023-04-30T23:53:30.090Z,10.53
2023-04-30T23:55:59.741Z,10.41
2023-04-30T23:58:27.236Z,10.73
